< < Back
Terminal Aerodrome Forecast


Current Version              Previous Versions:   1  2  3  4  5  6  7  8  9  

Terminal Aerodrome Forecast

493
FTUS42 KFFC 271234 AAA
TAFFTY
TAF AMD
KFTY 271234Z 2713/2812 26003KT P6SM SCT020
     FM271500 23007KT P6SM SCT040
     FM271800 23008KT P6SM SCT060 BKN120
     FM280200 23005KT P6SM SCT250=



Latest METAR

323
SAUS70 KWBC 271456
MTRFTY
METAR KFTY 271453Z 26/21 A3009 RMK AO2 SLP178 T02610211 50003 $


USA.gov is the U.S. government's official web portal to all federal, state and local government web resources and services.